Time;durP1;ratioP1;P1;durP2;ratioP2;P2;SDS_P1;SDS_P2;PMS_P1;PMS_P2;Temp;Humidity;BMP_temperature;BMP_pressure;BME280_temperature;BME280_humidity;BME280_pressure;Samples;Min_cycle;Max_cycle;Signal;HPM_P1;HPM_P2
2022/07/30 00:01:19;;;;;;;6.60;6.00;;;20.00;99.90;;;;;;5052108;28;20472;-58
2022/07/30 00:03:46;;;;;;;7.03;5.37;;;19.90;99.90;;;;;;5052444;28;20450;-57
2022/07/30 00:06:14;;;;;;;7.23;6.63;;;19.80;99.90;;;;;;5052719;28;20445;-57
2022/07/30 00:08:41;;;;;;;5.70;5.20;;;19.70;99.90;;;;;;5052128;28;20445;-57
2022/07/30 00:11:10;;;;;;;7.70;6.47;;;19.60;99.90;;;;;;5052765;28;20473;-57
2022/07/30 00:13:37;;;;;;;7.40;6.17;;;19.50;99.90;;;;;;5052662;28;20453;-57
2022/07/30 00:16:06;;;;;;;9.17;5.70;;;19.50;99.90;;;;;;5055894;28;20456;-57
2022/07/30 00:18:34;;;;;;;7.13;6.40;;;19.50;99.90;;;;;;5056037;28;20480;-57
2022/07/30 00:21:02;;;;;;;6.80;6.17;;;19.50;99.90;;;;;;5055700;28;20473;-57
2022/07/30 00:23:29;;;;;;;7.30;5.97;;;19.50;99.90;;;;;;5056129;28;20445;-57
2022/07/30 00:25:56;;;;;;;9.10;6.70;;;19.40;99.90;;;;;;5055993;28;20453;-57
2022/07/30 00:28:23;;;;;;;6.47;5.97;;;19.50;99.90;;;;;;5055879;28;20449;-58
2022/07/30 00:30:50;;;;;;;7.20;6.50;;;19.50;99.90;;;;;;5055968;28;20556;-58
2022/07/30 00:33:18;;;;;;;8.00;6.30;;;19.60;99.90;;;;;;5055326;28;20448;-58
2022/07/30 00:35:46;;;;;;;6.13;5.63;;;19.60;99.90;;;;;;5055749;28;20536;-58
2022/07/30 00:38:13;;;;;;;6.93;6.30;;;19.50;99.90;;;;;;5055511;28;20477;-57
2022/07/30 00:40:41;;;;;;;7.53;6.60;;;19.50;99.90;;;;;;5055517;28;20477;-58
2022/07/30 00:43:08;;;;;;;6.80;6.20;;;19.50;99.90;;;;;;5055059;28;20568;-58
2022/07/30 00:45:36;;;;;;;6.57;6.07;;;19.50;99.90;;;;;;5055153;28;20446;-57
2022/07/30 00:48:03;;;;;;;7.00;6.40;;;19.50;99.90;;;;;;5055311;28;20495;-57
2022/07/30 00:50:30;;;;;;;6.97;6.47;;;19.60;99.90;;;;;;5055082;28;21032;-57
2022/07/30 00:53:00;;;;;;;7.53;6.60;;;19.70;99.90;;;;;;5055377;28;20449;-58
2022/07/30 00:55:27;;;;;;;5.70;5.20;;;19.70;99.90;;;;;;5054945;28;20964;-57
2022/07/30 00:57:54;;;;;;;7.33;6.63;;;19.70;99.90;;;;;;5055045;28;20481;-57
2022/07/30 01:00:21;;;;;;;6.07;5.20;;;19.80;99.90;;;;;;5055163;28;20465;-58
2022/07/30 01:02:48;;;;;;;7.47;6.73;;;19.90;99.90;;;;;;5054883;28;20438;-57
2022/07/30 01:05:15;;;;;;;6.20;5.60;;;20.00;99.90;;;;;;5054745;28;20445;-58
2022/07/30 01:07:43;;;;;;;7.07;6.37;;;20.10;99.90;;;;;;5054761;28;21044;-58
2022/07/30 01:10:14;;;;;;;6.60;6.00;;;20.10;99.90;;;;;;5054857;28;20469;-57
2022/07/30 01:12:42;;;;;;;6.40;5.90;;;20.10;99.90;;;;;;5054540;28;20530;-57
2022/07/30 01:15:10;;;;;;;7.20;6.50;;;20.00;99.90;;;;;;5054813;28;20449;-57
2022/07/30 01:17:38;;;;;;;6.90;5.63;;;20.10;99.90;;;;;;5054824;28;20481;-57
2022/07/30 01:20:07;;;;;;;6.30;5.70;;;20.10;99.90;;;;;;5054823;28;20556;-59
2022/07/30 01:22:46;;;;;;;6.10;5.60;;;20.10;99.90;;;;;;5054453;28;20449;-58
2022/07/30 01:25:20;;;;;;;10.30;5.53;;;20.10;99.90;;;;;;5054322;28;20487;-58
2022/07/30 01:27:53;;;;;;;7.10;6.40;;;20.00;99.90;;;;;;5054473;28;20508;-58
2022/07/30 01:30:23;;;;;;;6.83;5.50;;;19.90;99.90;;;;;;5054393;28;20548;-58
2022/07/30 01:32:53;;;;;;;5.50;5.00;;;19.90;99.90;;;;;;5054623;28;20476;-58
2022/07/30 01:35:23;;;;;;;6.13;5.63;;;19.80;99.90;;;;;;5054605;28;20876;-57
2022/07/30 01:37:53;;;;;;;5.93;5.30;;;19.90;99.90;;;;;;5054486;28;20531;-57
2022/07/30 01:40:21;;;;;;;7.37;5.50;;;19.80;99.90;;;;;;5054242;28;20488;-57
2022/07/30 01:42:53;;;;;;;7.10;5.60;;;19.70;99.90;;;;;;5054102;28;20824;-58
2022/07/30 01:45:23;;;;;;;6.60;4.70;;;19.70;99.90;;;;;;5054373;28;20483;-57
2022/07/30 01:47:53;;;;;;;5.67;5.17;;;19.70;99.90;;;;;;5054229;28;20532;-59
2022/07/30 01:50:21;;;;;;;5.60;5.20;;;19.80;99.90;;;;;;5053835;28;20877;-58
2022/07/30 01:52:54;;;;;;;5.30;4.70;;;19.90;99.90;;;;;;5053839;28;20981;-56
2022/07/30 01:55:26;;;;;;;5.93;5.53;;;19.90;99.90;;;;;;5054317;28;20475;-58
2022/07/30 01:57:57;;;;;;;6.30;5.80;;;19.80;99.90;;;;;;5054077;28;20475;-57
2022/07/30 02:00:26;;;;;;;7.60;6.00;;;19.70;99.90;;;;;;5053986;28;20504;-56
2022/07/30 02:02:53;;;;;;;6.13;5.30;;;19.70;99.90;;;;;;5053568;28;21021;-58
2022/07/30 02:05:21;;;;;;;6.27;5.47;;;19.70;99.90;;;;;;5053706;28;20445;-58
2022/07/30 02:08:01;;;;;;;7.67;5.63;;;19.60;99.90;;;;;;5054017;28;20456;-56
2022/07/30 02:10:33;;;;;;;6.40;4.90;;;19.50;99.90;;;;;;5053827;28;20508;-57
2022/07/30 02:13:04;;;;;;;10.30;6.30;;;19.50;99.90;;;;;;5053849;28;20430;-57
2022/07/30 02:15:36;;;;;;;6.10;5.60;;;19.50;99.90;;;;;;5053593;28;20429;-57
2022/07/30 02:18:08;;;;;;;9.10;5.50;;;19.50;99.90;;;;;;5053404;28;20465;-57
2022/07/30 02:20:35;;;;;;;7.47;6.20;;;19.40;99.90;;;;;;5053616;28;20468;-57
2022/07/30 02:23:07;;;;;;;6.47;5.87;;;19.20;99.90;;;;;;5053666;28;20449;-57
2022/07/30 02:25:36;;;;;;;8.23;5.33;;;19.20;99.90;;;;;;5053398;28;20529;-58
2022/07/30 02:28:10;;;;;;;7.33;5.60;;;19.10;99.90;;;;;;5053598;28;20815;-58
2022/07/30 02:30:42;;;;;;;6.93;5.47;;;19.10;99.90;;;;;;5053084;28;21056;-57
2022/07/30 02:33:11;;;;;;;5.93;5.27;;;19.10;99.90;;;;;;5053416;28;20430;-57
2022/07/30 02:35:40;;;;;;;5.37;4.97;;;19.00;99.90;;;;;;5053217;28;20448;-58
2022/07/30 02:38:09;;;;;;;5.73;5.23;;;18.90;99.90;;;;;;5052257;28;20837;-57
2022/07/30 02:40:39;;;;;;;5.90;5.40;;;19.00;99.90;;;;;;5053241;28;20499;-58
2022/07/30 02:43:08;;;;;;;6.37;5.77;;;18.90;99.90;;;;;;5052945;28;20841;-58
2022/07/30 02:45:39;;;;;;;7.93;5.63;;;19.00;99.90;;;;;;5053005;28;20445;-58
2022/07/30 02:48:10;;;;;;;5.97;5.47;;;18.90;99.90;;;;;;5052907;28;20429;-57
2022/07/30 02:50:39;;;;;;;8.60;5.43;;;18.90;99.90;;;;;;5052807;28;20958;-57
2022/07/30 02:53:10;;;;;;;6.50;5.87;;;18.80;99.90;;;;;;5053249;28;20515;-57
2022/07/30 02:55:38;;;;;;;5.73;5.23;;;18.90;99.90;;;;;;5053007;28;20536;-57
2022/07/30 02:58:07;;;;;;;6.47;5.73;;;18.90;99.90;;;;;;5052984;28;20485;-57
2022/07/30 03:00:35;;;;;;;8.50;5.90;;;18.90;99.90;;;;;;5052971;28;20480;-57
2022/07/30 03:03:06;;;;;;;6.10;5.47;;;18.90;99.90;;;;;;5053142;28;20816;-57
2022/07/30 03:05:34;;;;;;;6.67;6.00;;;18.80;99.90;;;;;;5052762;28;20444;-57
2022/07/30 03:08:02;;;;;;;5.90;5.40;;;18.90;99.90;;;;;;5052682;28;20457;-57
2022/07/30 03:10:31;;;;;;;6.00;5.50;;;18.90;99.90;;;;;;5053005;28;20961;-57
2022/07/30 03:13:00;;;;;;;6.53;5.93;;;18.90;99.90;;;;;;5052846;28;20456;-57
2022/07/30 03:15:29;;;;;;;5.53;5.00;;;18.80;99.90;;;;;;5052881;28;20557;-57
2022/07/30 03:17:58;;;;;;;5.60;5.00;;;18.80;99.90;;;;;;5052406;28;20952;-57
2022/07/30 03:20:31;;;;;;;5.53;5.03;;;18.80;99.90;;;;;;5053018;28;20470;-57
2022/07/30 03:23:01;;;;;;;6.77;4.77;;;18.90;99.90;;;;;;5052522;28;20800;-57
2022/07/30 03:25:30;;;;;;;5.83;5.33;;;18.90;99.90;;;;;;5052531;28;20429;-57
2022/07/30 03:28:00;;;;;;;6.43;5.17;;;18.90;99.90;;;;;;5052576;28;20461;-57
2022/07/30 03:30:30;;;;;;;4.90;4.50;;;19.00;99.90;;;;;;5052519;28;20500;-57
2022/07/30 03:32:58;;;;;;;10.70;6.30;;;19.00;99.90;;;;;;5052754;28;20463;-57
2022/07/30 03:35:27;;;;;;;6.03;5.30;;;18.90;99.90;;;;;;5052624;28;20456;-57
2022/07/30 03:37:54;;;;;;;5.60;5.03;;;18.90;99.90;;;;;;5052523;28;20449;-57
2022/07/30 03:40:22;;;;;;;7.53;5.00;;;18.90;99.90;;;;;;5052571;28;20568;-57
2022/07/30 03:42:50;;;;;;;11.77;5.43;;;18.90;99.90;;;;;;5052116;28;20915;-57
2022/07/30 03:45:19;;;;;;;6.17;4.83;;;18.90;99.90;;;;;;5052814;28;20532;-57
2022/07/30 03:47:48;;;;;;;5.50;4.90;;;18.90;99.90;;;;;;5052531;28;20471;-57
2022/07/30 03:50:16;;;;;;;6.23;5.63;;;18.80;99.90;;;;;;5054951;28;20806;-57
2022/07/30 03:52:43;;;;;;;20.70;6.70;;;18.80;99.90;;;;;;5056242;28;20455;-57
2022/07/30 03:55:15;;;;;;;6.23;5.67;;;18.80;99.90;;;;;;5056059;28;20484;-57
2022/07/30 03:57:43;;;;;;;6.20;5.20;;;18.90;99.90;;;;;;5055988;28;20449;-57
2022/07/30 04:00:14;;;;;;;6.57;5.97;;;18.80;99.90;;;;;;5056085;28;20513;-57
2022/07/30 04:02:42;;;;;;;6.03;5.50;;;18.90;99.90;;;;;;5056094;28;20981;-57
2022/07/30 04:05:12;;;;;;;6.03;5.53;;;18.80;99.90;;;;;;5055828;28;20456;-57
2022/07/30 04:07:39;;;;;;;9.60;5.73;;;18.80;99.90;;;;;;5055739;28;20511;-58
2022/07/30 04:10:08;;;;;;;5.83;5.27;;;18.80;99.90;;;;;;5055934;28;20559;-57
2022/07/30 04:12:35;;;;;;;5.80;5.40;;;18.90;99.90;;;;;;5056070;28;20468;-57
2022/07/30 04:15:03;;;;;;;5.50;5.10;;;18.90;99.90;;;;;;5055965;28;20471;-57
2022/07/30 04:17:35;;;;;;;6.20;5.33;;;18.90;99.90;;;;;;5055811;28;20541;-57
2022/07/30 04:20:08;;;;;;;8.23;5.13;;;18.90;99.90;;;;;;5055578;28;20989;-57
2022/07/30 04:22:37;;;;;;;5.70;5.10;;;18.80;99.90;;;;;;5055963;28;20426;-57
2022/07/30 04:25:06;;;;;;;8.43;5.80;;;18.70;99.90;;;;;;5055776;28;20472;-57
2022/07/30 04:27:35;;;;;;;5.93;5.27;;;18.70;99.90;;;;;;5055825;28;20445;-57
2022/07/30 04:30:03;;;;;;;6.20;5.60;;;18.70;99.90;;;;;;5055861;28;20500;-58
2022/07/30 04:32:32;;;;;;;7.17;5.63;;;18.70;99.90;;;;;;5055789;28;20531;-57
2022/07/30 04:34:59;;;;;;;6.70;6.10;;;18.60;99.90;;;;;;5055604;28;20441;-57
2022/07/30 04:37:27;;;;;;;6.17;5.67;;;18.70;99.90;;;;;;5055744;28;20536;-57
2022/07/30 04:39:57;;;;;;;7.60;5.80;;;18.70;99.90;;;;;;5055351;28;20489;-57
2022/07/30 04:42:25;;;;;;;7.97;6.20;;;18.60;99.90;;;;;;5055269;28;20453;-57
2022/07/30 04:44:52;;;;;;;7.07;6.00;;;18.70;99.90;;;;;;5055571;28;20894;-57
2022/07/30 04:47:20;;;;;;;8.00;6.10;;;18.70;99.90;;;;;;5055391;28;20485;-57
2022/07/30 04:49:48;;;;;;;7.43;6.70;;;18.70;99.90;;;;;;5055241;28;20469;-57
2022/07/30 04:52:17;;;;;;;6.47;5.90;;;18.70;99.90;;;;;;5055015;28;20449;-57
2022/07/30 04:54:48;;;;;;;6.77;6.13;;;18.70;99.90;;;;;;5054896;28;20993;-57
2022/07/30 04:57:19;;;;;;;6.30;5.70;;;18.70;99.90;;;;;;5055128;28;20445;-57
2022/07/30 04:59:46;;;;;;;6.37;5.87;;;18.80;99.90;;;;;;5054902;28;20909;-57
2022/07/30 05:02:16;;;;;;;6.40;5.60;;;18.80;99.90;;;;;;5054196;28;20456;-57
2022/07/30 05:04:44;;;;;;;6.90;6.20;;;18.80;99.90;;;;;;5055057;28;20449;-57
2022/07/30 05:07:13;;;;;;;6.07;5.50;;;18.80;99.90;;;;;;5055009;28;20455;-57
2022/07/30 05:09:41;;;;;;;9.03;5.67;;;18.80;99.90;;;;;;5054833;28;20473;-57
2022/07/30 05:12:09;;;;;;;5.40;4.90;;;18.90;99.90;;;;;;5054606;28;20450;-57
2022/07/30 05:14:37;;;;;;;7.43;5.80;;;18.90;99.90;;;;;;5054855;28;20449;-57
2022/07/30 05:17:05;;;;;;;6.47;5.87;;;19.00;99.90;;;;;;5054981;28;20479;-57
2022/07/30 05:19:32;;;;;;;6.33;5.77;;;19.10;99.90;;;;;;5054432;28;20519;-57
2022/07/30 05:21:59;;;;;;;6.70;6.00;;;19.00;99.90;;;;;;5054675;28;20441;-57
2022/07/30 05:24:26;;;;;;;5.60;5.10;;;19.10;99.90;;;;;;5054385;28;20481;-57
2022/07/30 05:26:54;;;;;;;6.63;6.03;;;19.10;99.90;;;;;;5054433;28;20537;-57
2022/07/30 05:29:21;;;;;;;6.00;5.57;;;19.20;99.90;;;;;;5054449;28;20456;-57
2022/07/30 05:31:50;;;;;;;5.87;5.47;;;19.20;99.90;;;;;;5054269;28;20933;-57
2022/07/30 05:34:17;;;;;;;7.87;5.77;;;19.20;99.90;;;;;;5054285;28;20541;-57
2022/07/30 05:36:44;;;;;;;5.97;5.17;;;19.30;99.90;;;;;;5054192;28;20537;-57
2022/07/30 05:39:12;;;;;;;7.23;6.20;;;19.40;99.90;;;;;;5053875;28;20887;-57
2022/07/30 05:41:39;;;;;;;7.00;6.27;;;19.50;99.90;;;;;;5054484;28;20826;-57
2022/07/30 05:44:06;;;;;;;6.90;6.20;;;19.50;99.90;;;;;;5053897;28;20512;-57
2022/07/30 05:46:34;;;;;;;6.43;5.83;;;19.70;99.90;;;;;;5054385;28;20536;-57
2022/07/30 05:49:02;;;;;;;6.00;5.43;;;19.80;99.90;;;;;;5054334;28;20484;-57
2022/07/30 05:51:29;;;;;;;6.33;5.80;;;19.90;99.90;;;;;;5053811;28;20552;-57
2022/07/30 05:53:57;;;;;;;8.47;5.33;;;20.00;99.90;;;;;;5053736;28;20983;-57
2022/07/30 05:56:24;;;;;;;6.20;5.50;;;20.10;99.90;;;;;;5053858;28;20540;-57
2022/07/30 05:58:51;;;;;;;8.47;6.73;;;20.20;99.90;;;;;;5053715;28;20476;-57
2022/07/30 06:01:18;;;;;;;6.50;5.90;;;20.30;99.90;;;;;;5053623;28;20465;-57
2022/07/30 06:03:46;;;;;;;7.20;6.50;;;20.40;99.90;;;;;;5054185;28;20454;-57
2022/07/30 06:06:14;;;;;;;6.43;5.80;;;20.40;99.90;;;;;;5053843;28;20533;-57
2022/07/30 06:08:42;;;;;;;9.70;5.73;;;20.50;99.90;;;;;;5053515;28;20476;-57
2022/07/30 06:11:10;;;;;;;6.20;5.60;;;20.50;99.90;;;;;;5054069;28;20976;-57
2022/07/30 06:13:37;;;;;;;6.40;5.83;;;20.60;99.90;;;;;;5053349;28;20540;-57
2022/07/30 06:16:05;;;;;;;6.40;5.70;;;20.60;99.90;;;;;;5053682;28;20544;-57
2022/07/30 06:18:32;;;;;;;5.83;5.33;;;20.70;99.90;;;;;;5053513;28;20521;-58
2022/07/30 06:20:59;;;;;;;4.93;4.50;;;20.80;99.90;;;;;;5053516;28;20656;-57
2022/07/30 06:23:28;;;;;;;5.30;4.80;;;20.90;99.90;;;;;;5053498;28;20483;-57
2022/07/30 06:25:55;;;;;;;7.80;5.60;;;20.90;99.90;;;;;;5053464;28;20446;-57
2022/07/30 06:28:22;;;;;;;5.50;5.00;;;21.00;99.90;;;;;;5053481;28;20449;-57
2022/07/30 06:30:49;;;;;;;5.70;5.20;;;21.10;99.90;;;;;;5053302;28;20461;-57
2022/07/30 06:33:17;;;;;;;6.90;5.37;;;21.20;99.90;;;;;;5053417;28;20888;-57
2022/07/30 06:35:44;;;;;;;5.60;5.10;;;21.30;99.90;;;;;;5053518;28;20532;-57
2022/07/30 06:38:11;;;;;;;8.13;5.23;;;21.30;99.90;;;;;;5053069;28;20445;-57
2022/07/30 06:40:40;;;;;;;6.63;5.00;;;21.30;99.90;;;;;;5053247;28;20572;-57
2022/07/30 06:43:07;;;;;;;5.30;4.90;;;21.50;99.90;;;;;;5052854;28;20487;-57
2022/07/30 06:45:34;;;;;;;6.87;5.47;;;21.50;99.90;;;;;;5053178;28;20498;-57
2022/07/30 06:48:01;;;;;;;7.60;5.23;;;21.50;99.90;;;;;;5053269;28;20453;-57
2022/07/30 06:50:29;;;;;;;10.37;5.93;;;21.60;99.90;;;;;;5053082;28;20461;-57
2022/07/30 06:52:56;;;;;;;5.47;4.70;;;21.60;99.90;;;;;;5053014;28;20441;-57
2022/07/30 06:55:24;;;;;;;7.37;5.57;;;21.60;99.90;;;;;;5053253;28;20445;-57
2022/07/30 06:57:52;;;;;;;6.63;5.67;;;21.70;99.90;;;;;;5053111;28;20449;-57
2022/07/30 07:00:20;;;;;;;6.97;6.27;;;21.80;99.90;;;;;;5052567;28;20484;-57
2022/07/30 07:02:47;;;;;;;6.10;5.10;;;21.80;99.90;;;;;;5052919;28;20449;-57
2022/07/30 07:05:15;;;;;;;7.37;6.63;;;21.90;99.90;;;;;;5052818;28;20488;-57
2022/07/30 07:07:42;;;;;;;7.47;6.40;;;21.90;99.90;;;;;;5052890;28;20522;-57
2022/07/30 07:10:10;;;;;;;7.00;5.93;;;22.00;99.90;;;;;;5052785;28;20523;-57
2022/07/30 07:12:38;;;;;;;6.27;5.67;;;22.10;99.90;;;;;;5052848;28;20477;-57
2022/07/30 07:15:08;;;;;;;7.90;6.80;;;22.10;99.90;;;;;;5052779;28;20449;-57
2022/07/30 07:17:35;;;;;;;6.33;5.73;;;22.20;99.90;;;;;;5052797;28;20540;-57
2022/07/30 07:20:02;;;;;;;7.33;5.20;;;22.20;99.90;;;;;;5052315;28;20564;-57
2022/07/30 07:22:29;;;;;;;7.50;6.00;;;22.30;99.90;;;;;;5053182;28;20524;-57
2022/07/30 07:24:56;;;;;;;10.23;4.73;;;22.30;99.90;;;;;;5054716;28;20452;-57
2022/07/30 07:27:24;;;;;;;9.47;5.33;;;22.40;99.90;;;;;;5056705;28;20455;-57
2022/07/30 07:29:51;;;;;;;7.10;4.80;;;22.50;99.90;;;;;;5056540;28;20508;-57
2022/07/30 07:32:20;;;;;;;5.13;4.63;;;22.60;99.90;;;;;;5056429;28;20445;-57
2022/07/30 07:34:47;;;;;;;6.50;5.77;;;22.70;99.90;;;;;;5056277;28;20491;-58
2022/07/30 07:37:15;;;;;;;5.90;5.13;;;22.80;99.90;;;;;;5056630;28;20459;-58
2022/07/30 07:39:42;;;;;;;10.40;5.57;;;22.80;99.90;;;;;;5056076;28;20492;-58
2022/07/30 07:42:10;;;;;;;8.17;4.80;;;23.10;99.90;;;;;;5056175;28;20455;-57
2022/07/30 07:44:37;;;;;;;9.50;5.60;;;23.70;99.90;;;;;;5056127;28;20484;-57
2022/07/30 07:47:05;;;;;;;6.90;4.63;;;24.40;99.50;;;;;;5056381;28;20445;-57
2022/07/30 07:49:33;;;;;;;5.90;4.10;;;25.10;98.60;;;;;;5055957;28;20532;-57
2022/07/30 07:52:00;;;;;;;6.33;4.73;;;25.70;97.40;;;;;;5056531;28;20810;-57
2022/07/30 07:54:27;;;;;;;4.30;3.90;;;26.20;96.80;;;;;;5056044;28;20481;-57
2022/07/30 07:56:55;;;;;;;4.53;4.13;;;26.70;94.90;;;;;;5056009;28;20475;-58
2022/07/30 07:59:23;;;;;;;5.03;4.53;;;27.10;93.40;;;;;;5055639;28;20451;-58
2022/07/30 08:01:50;;;;;;;4.73;4.33;;;;;;;;;;5056177;28;20449;-58
2022/07/30 08:04:18;;;;;;;12.00;5.07;;;27.50;91.10;;;;;;5056061;28;20489;-58
2022/07/30 08:06:46;;;;;;;5.37;4.63;;;27.60;90.80;;;;;;5055672;28;20445;-58
2022/07/30 08:09:13;;;;;;;6.23;5.13;;;27.70;90.80;;;;;;5056071;28;20461;-59
2022/07/30 08:11:41;;;;;;;4.40;4.00;;;27.70;87.50;;;;;;5055698;28;20502;-58
2022/07/30 08:14:08;;;;;;;7.03;3.70;;;27.80;88.10;;;;;;5055865;28;20445;-59
2022/07/30 08:16:35;;;;;;;7.30;4.30;;;28.10;87.80;;;;;;5055979;28;20533;-59
2022/07/30 08:19:02;;;;;;;3.90;3.60;;;28.70;85.50;;;;;;5055826;28;20441;-59
2022/07/30 08:21:29;;;;;;;5.87;4.50;;;28.80;84.40;;;;;;5055733;28;20543;-59
2022/07/30 08:23:58;;;;;;;4.63;4.23;;;;;;;;;;5055281;28;20453;-59
2022/07/30 08:26:25;;;;;;;8.13;5.90;;;27.60;83.50;;;;;;5055444;28;20445;-59
2022/07/30 08:28:53;;;;;;;6.87;4.20;;;27.30;83.60;;;;;;5055485;28;20475;-58
2022/07/30 08:31:20;;;;;;;4.87;4.37;;;27.60;85.00;;;;;;5055268;28;20942;-59
2022/07/30 08:33:47;;;;;;;4.30;3.90;;;28.20;83.30;;;;;;5055423;28;20473;-59
2022/07/30 08:36:14;;;;;;;3.80;3.20;;;28.50;78.70;;;;;;5055514;28;20449;-59
2022/07/30 08:38:41;;;;;;;3.80;3.37;;;29.10;77.80;;;;;;5055468;28;20445;-59
2022/07/30 08:41:11;;;;;;;4.23;3.83;;;29.00;77.50;;;;;;5054939;28;20583;-59
2022/07/30 08:43:39;;;;;;;5.60;3.67;;;28.80;74.80;;;;;;5055096;28;20855;-59
2022/07/30 08:46:11;;;;;;;4.33;4.00;;;29.10;75.00;;;;;;5055178;28;20449;-59
2022/07/30 08:48:38;;;;;;;4.53;3.43;;;29.50;76.50;;;;;;5055380;28;20876;-59
2022/07/30 08:51:05;;;;;;;5.10;3.93;;;29.90;73.30;;;;;;5054851;28;20492;-59
2022/07/30 08:53:34;;;;;;;4.93;3.70;;;29.70;71.90;;;;;;5055209;28;20449;-59
2022/07/30 08:56:01;;;;;;;4.60;4.00;;;29.90;70.90;;;;;;5054999;28;20453;-59
2022/07/30 08:58:32;;;;;;;5.47;4.30;;;29.50;72.50;;;;;;5055013;28;20445;-59
2022/07/30 09:01:00;;;;;;;5.17;3.80;;;29.60;68.00;;;;;;5054713;28;20485;-59
2022/07/30 09:03:27;;;;;;;4.07;3.27;;;29.20;71.10;;;;;;5055304;28;20809;-59
2022/07/30 09:05:54;;;;;;;4.43;4.03;;;29.60;67.80;;;;;;5054724;28;20453;-59
2022/07/30 09:08:23;;;;;;;4.43;3.57;;;29.50;67.50;;;;;;5054648;28;20540;-59
2022/07/30 09:10:50;;;;;;;8.17;3.67;;;29.20;69.30;;;;;;5055255;28;20567;-59
2022/07/30 09:13:24;;;;;;;4.30;3.90;;;29.90;68.50;;;;;;5055460;28;20451;-59
2022/07/30 09:15:53;;;;;;;4.73;3.70;;;29.60;66.50;;;;;;5054995;28;20449;-59
2022/07/30 09:18:28;;;;;;;6.70;4.10;;;30.20;66.40;;;;;;5054519;28;20481;-59
2022/07/30 09:20:56;;;;;;;3.77;3.37;;;30.20;65.50;;;;;;5054394;28;20989;-59
2022/07/30 09:23:23;;;;;;;5.33;4.13;;;29.10;67.20;;;;;;5054605;28;20937;-59
2022/07/30 09:25:51;;;;;;;3.27;2.97;;;28.30;67.50;;;;;;5054419;28;20448;-59
2022/07/30 09:28:29;;;;;;;4.97;3.43;;;28.80;68.00;;;;;;5053881;28;20449;-59
2022/07/30 09:30:57;;;;;;;5.50;4.17;;;29.90;66.50;;;;;;5054872;28;20461;-59
2022/07/30 09:33:36;;;;;;;5.43;4.50;;;31.10;65.40;;;;;;5054470;28;20445;-58
2022/07/30 09:36:05;;;;;;;4.10;3.73;;;30.30;64.00;;;;;;5054186;28;20535;-58
2022/07/30 09:38:43;;;;;;;5.33;4.13;;;29.60;65.00;;;;;;5054396;28;20540;-58
2022/07/30 09:41:11;;;;;;;4.20;3.80;;;29.70;63.90;;;;;;5054202;28;20477;-59
2022/07/30 09:43:43;;;;;;;5.40;3.47;;;29.40;66.50;;;;;;5053845;28;20491;-59
2022/07/30 09:46:12;;;;;;;9.30;4.10;;;28.60;66.50;;;;;;5053944;28;20536;-58
2022/07/30 09:48:39;;;;;;;5.73;3.37;;;28.40;66.90;;;;;;5053807;28;20456;-59
2022/07/30 09:51:07;;;;;;;5.30;3.53;;;29.40;66.20;;;;;;5054186;28;20556;-59
2022/07/30 09:53:34;;;;;;;3.87;3.10;;;30.60;75.00;;;;;;5053972;28;20529;-59
2022/07/30 09:56:02;;;;;;;3.90;3.00;;;30.40;63.50;;;;;;5054078;28;20452;-59
2022/07/30 09:58:39;;;;;;;3.80;3.40;;;29.90;63.80;;;;;;5053967;28;20937;-58
2022/07/30 10:01:08;;;;;;;3.43;3.10;;;29.30;62.40;;;;;;5053669;28;20485;-58
2022/07/30 10:03:42;;;;;;;4.40;3.23;;;29.40;60.90;;;;;;5053591;28;20453;-59
2022/07/30 10:06:09;;;;;;;9.40;3.50;;;30.00;61.30;;;;;;5053372;28;20906;-59
2022/07/30 10:08:41;;;;;;;6.50;3.57;;;30.00;60.80;;;;;;5053503;28;20456;-58
2022/07/30 10:11:12;;;;;;;4.57;3.10;;;30.00;60.60;;;;;;5053999;28;20569;-59
2022/07/30 10:13:41;;;;;;;3.03;2.43;;;29.20;61.40;;;;;;5053522;28;20414;-59
2022/07/30 10:16:08;;;;;;;4.40;3.00;;;28.50;61.10;;;;;;5053369;28;20961;-59
2022/07/30 10:18:38;;;;;;;3.40;3.10;;;28.00;62.70;;;;;;5053722;28;20914;-58
2022/07/30 10:21:05;;;;;;;5.93;2.97;;;28.60;61.20;;;;;;5053234;28;20539;-58
2022/07/30 10:23:33;;;;;;;4.97;3.60;;;29.20;61.10;;;;;;5053454;28;20533;-58
2022/07/30 10:26:01;;;;;;;6.03;3.23;;;29.50;59.70;;;;;;5053536;28;20532;-58
2022/07/30 10:28:29;;;;;;;3.30;3.00;;;28.60;59.50;;;;;;5053447;28;20445;-58
2022/07/30 10:30:58;;;;;;;3.30;3.00;;;28.90;61.10;;;;;;5052961;28;21302;-59
2022/07/30 10:33:26;;;;;;;4.27;3.07;;;29.50;60.80;;;;;;5053173;28;20450;-58
2022/07/30 10:35:56;;;;;;;3.30;3.10;;;30.10;59.20;;;;;;5053327;28;20471;-59
2022/07/30 10:38:28;;;;;;;3.53;3.23;;;30.50;58.40;;;;;;5052991;28;20426;-59
2022/07/30 10:41:00;;;;;;;4.13;3.07;;;30.60;59.40;;;;;;5052589;28;20609;-60
2022/07/30 10:43:51;;;;;;;3.43;2.33;;;;;;;;;;5052677;28;20568;-59
2022/07/30 10:46:29;;;;;;;3.83;3.17;;;31.50;57.70;;;;;;5038052;28;20980;-60
2022/07/30 10:49:08;;;;;;;4.43;2.83;;;31.50;56.90;;;;;;5053305;28;20429;-59
2022/07/30 10:51:48;;;;;;;7.23;2.83;;;;;;;;;;5053120;28;20453;-59
2022/07/30 10:54:40;;;;;;;3.27;2.97;;;30.70;55.90;;;;;;5053199;28;20417;-59
2022/07/30 10:57:10;;;;;;;5.27;3.10;;;30.40;57.70;;;;;;5043964;28;20457;-59
2022/07/30 11:00:08;;;;;;;5.30;2.90;;;30.30;57.80;;;;;;5051772;28;20449;-59
2022/07/30 11:02:36;;;;;;;4.40;3.10;;;29.60;58.20;;;;;;5045162;28;20493;-60
2022/07/30 11:05:22;;;;;;;3.60;3.13;;;29.90;58.50;;;;;;5052552;28;20548;-59
2022/07/30 11:07:51;;;;;;;2.60;2.23;;;30.50;57.50;;;;;;5052814;28;20449;-59
2022/07/30 11:10:39;;;;;;;6.73;3.23;;;30.70;56.00;;;;;;5052905;28;20464;-59
2022/07/30 11:13:08;;;;;;;4.03;2.87;;;30.20;55.70;;;;;;5052762;28;20449;-59
2022/07/30 11:15:54;;;;;;;3.00;2.70;;;29.80;55.70;;;;;;5052816;28;20836;-59
2022/07/30 11:18:23;;;;;;;3.07;2.80;;;30.40;57.00;;;;;;5052511;28;20422;-59
2022/07/30 11:21:15;;;;;;;2.90;2.70;;;31.60;57.50;;;;;;5052352;28;20531;-59
2022/07/30 11:23:45;;;;;;;5.20;3.17;;;31.70;56.00;;;;;;5042141;28;20945;-59
2022/07/30 11:26:46;;;;;;;5.53;3.13;;;30.80;56.40;;;;;;5052778;28;20445;-59
2022/07/30 11:29:35;;;;;;;2.90;2.50;;;29.60;56.20;;;;;;5052526;28;20441;-59
2022/07/30 11:32:25;;;;;;;2.77;2.57;;;30.20;56.10;;;;;;5052904;28;20469;-59
2022/07/30 11:34:52;;;;;;;8.90;2.80;;;;;;;;;;5052715;28;20449;-59
2022/07/30 11:37:21;;;;;;;4.07;3.03;;;31.70;55.30;;;;;;5053253;28;20560;-60
2022/07/30 11:40:10;;;;;;;4.37;2.90;;;31.10;54.90;;;;;;5052475;28;20572;-59
2022/07/30 11:42:39;;;;;;;7.37;3.40;;;31.30;55.10;;;;;;5051870;28;20561;-59
2022/07/30 11:45:25;;;;;;;4.60;2.83;;;31.50;54.60;;;;;;5052334;28;20468;-59
2022/07/30 11:47:54;;;;;;;3.10;2.77;;;31.40;54.30;;;;;;5052484;28;20827;-59
2022/07/30 11:50:24;;;;;;;3.97;3.33;;;32.00;54.30;;;;;;5052516;28;20473;-59
2022/07/30 11:52:52;;;;;;;3.97;3.57;;;32.10;53.80;;;;;;5052602;28;20535;-59
2022/07/30 11:55:31;;;;;;;4.73;2.73;;;32.30;53.70;;;;;;5052063;28;20445;-59
2022/07/30 11:57:59;;;;;;;8.13;3.13;;;31.40;53.80;;;;;;5052386;28;20483;-59
2022/07/30 12:00:34;;;;;;;3.10;2.80;;;30.40;54.80;;;;;;5052468;28;20480;-60
2022/07/30 12:03:08;;;;;;;5.80;2.83;;;30.00;55.20;;;;;;5052132;28;20461;-59
2022/07/30 12:05:35;;;;;;;3.03;2.73;;;30.50;55.20;;;;;;5052098;28;20438;-59
2022/07/30 12:08:04;;;;;;;2.90;2.43;;;31.30;55.20;;;;;;5051944;28;20434;-59
2022/07/30 12:10:34;;;;;;;2.60;2.40;;;32.00;54.30;;;;;;5053492;28;20538;-59
2022/07/30 12:13:09;;;;;;;3.60;2.70;;;31.60;54.10;;;;;;5055953;28;20425;-59
2022/07/30 12:15:38;;;;;;;2.63;2.30;;;32.00;53.60;;;;;;5055890;28;20535;-59
2022/07/30 12:18:06;;;;;;;5.60;2.50;;;32.00;53.60;;;;;;5055761;28;20453;-59
2022/07/30 12:20:34;;;;;;;2.60;2.40;;;32.50;52.50;;;;;;5055765;28;20488;-59
2022/07/30 12:23:02;;;;;;;4.70;2.63;;;32.70;52.60;;;;;;5055523;28;20484;-59
2022/07/30 12:25:29;;;;;;;2.63;2.40;;;32.70;52.70;;;;;;5055658;28;20449;-59
2022/07/30 12:27:58;;;;;;;4.50;2.70;;;32.30;51.90;;;;;;5055766;28;20449;-59
2022/07/30 12:30:27;;;;;;;3.07;2.77;;;32.50;52.00;;;;;;5055843;28;20820;-59
2022/07/30 12:32:54;;;;;;;3.20;2.40;;;32.10;51.80;;;;;;5055663;28;20450;-59
2022/07/30 12:35:21;;;;;;;2.90;2.67;;;31.80;52.20;;;;;;5055128;28;20544;-59
2022/07/30 12:38:04;;;;;;;3.60;2.20;;;32.50;52.60;;;;;;5055618;28;20477;-59
2022/07/30 12:40:31;;;;;;;2.60;2.40;;;32.80;51.60;;;;;;5055503;28;20484;-59
2022/07/30 12:43:00;;;;;;;4.53;2.60;;;32.40;51.80;;;;;;5054890;28;20909;-59
2022/07/30 12:45:29;;;;;;;2.57;2.37;;;32.30;51.80;;;;;;5054953;28;20993;-59
2022/07/30 12:47:57;;;;;;;2.80;2.40;;;32.30;50.70;;;;;;5055500;28;20533;-59
2022/07/30 12:50:26;;;;;;;2.50;2.30;;;32.10;51.60;;;;;;5055183;28;20464;-59
2022/07/30 12:52:54;;;;;;;3.20;2.17;;;31.80;50.80;;;;;;5055172;28;20445;-59
2022/07/30 12:55:31;;;;;;;4.30;2.50;;;32.20;51.70;;;;;;5054733;28;20543;-59
2022/07/30 12:58:01;;;;;;;2.67;2.47;;;32.40;50.60;;;;;;5054961;28;20486;-59
2022/07/30 13:00:30;;;;;;;3.00;2.27;;;32.00;50.50;;;;;;5054665;28;21043;-59